Ana Sayfa
METAR-TAF:

METAR-TAF

Havaalanları :

Midland, Teksas, Amerika Birleşik Devletleri

Enlem: 31-56-52N, Boylam: 102-12-31W, yükseklik: 875 m

Güncel hava durumu gözlemi

Rapor saat 07:53 UTC de 19 dakika önce yapıldı.
Rüzgar batıdan 11 kt
Sıcaklık 9°C
Nem 61%
Basınç 1011 hPa
Görüş mesafesi: 16.1 km
Açık gökyüzü

METAR: KMAF 280753Z AUTO 27011KT 10SM CLR 09/02 A2986 RMK AO2 SLP081 T00940022

Saat: 02:12 (08:12 UTC)

Tahmin

Rapor saat 05:20 UTC de 2 saat ve 52 dakika önce yapıldı.
Ayın 28'si saat 06 UTC'den ayın 29'si saat 06 UTC'ye kadar geçerli Tahmin
Rüzgar batı/güneybatıdan 11 kt
Görüş mesafesi: 10 km
10000 ft yükseklikte parçalı bulutlu
14000 ft yükseklikte parçalı çok bulutlu
Ayın 28'si saat 1500 UTC'den
Rüzgar kuzey/kuzeybatıdan 25 kt ve 35 kt'a kadar ani rüzgarlar
Görüş mesafesi: 10 km
10000 ft yükseklikte parçalı bulutlu
12000 ft yükseklikte parçalı çok bulutlu

TAF: KMAF 280520Z 2806/2906 25011KT P6SM SCT100 BKN140 FM281500 34025G35KT P6SM SCT100 BKN120

4.000'den fazla havaalanı için hava durumu gözlemleri ve tahminleri (METAR ve TAF raporları).

Kullanılabilir istasyonlar harita üzerinde sarı ve kırmızı noktalarla gösterilir.

İstasyonun adını görmek için fareyi noktanın üzerinde gezdirin.

Sonrasında hava gözlem ve tahminlerini görmek için tıklayın.

Haritayı değiştirmek için: yaklaştırmak için siyah artı işaretli yeşil düğmeye ve uzaklaştırmak için de eksi işaretli düğmeye hızla tıklayın; bitişik haritalar için yeşil okları kullanın.


METAR-TAF: